createdAt,value
2022-12-18T00:00:28.200Z,173.10
2022-12-18T00:01:28.122Z,244.40
2022-12-18T00:02:28.114Z,430.00
2022-12-18T00:03:28.236Z,184.60
2022-12-18T00:04:28.118Z,284.20
2022-12-18T00:05:28.061Z,311.90
2022-12-18T00:06:28.022Z,215.10
2022-12-18T00:07:28.040Z,347.80
2022-12-18T00:08:27.968Z,318.90
2022-12-18T00:09:31.598Z,354.50
2022-12-18T00:10:28.971Z,224.10
2022-12-18T00:11:27.989Z,362.60
2022-12-18T00:12:30.043Z,378.00
2022-12-18T00:13:27.950Z,344.70
2022-12-18T00:14:27.921Z,244.60
2022-12-18T00:15:27.931Z,337.20
2022-12-18T00:16:28.144Z,364.80
2022-12-18T00:17:27.919Z,259.30
2022-12-18T00:18:27.885Z,297.60
2022-12-18T00:19:27.893Z,299.20
2022-12-18T00:20:27.830Z,393.80
2022-12-18T00:21:27.836Z,327.10
2022-12-18T00:22:27.822Z,195.70
2022-12-18T00:23:27.815Z,113.60
2022-12-18T00:24:27.833Z,104.90
2022-12-18T00:25:28.540Z,358.60
2022-12-18T00:26:27.750Z,300.20
2022-12-18T00:27:27.765Z,191.30
2022-12-18T00:28:27.753Z,104.60
2022-12-18T00:29:27.775Z,113.80
2022-12-18T00:30:27.727Z,105.80
2022-12-18T00:31:27.781Z,129.50
2022-12-18T00:32:27.679Z,132.80
2022-12-18T00:33:27.688Z,191.50
2022-12-18T00:34:27.681Z,222.50
2022-12-18T00:35:27.691Z,280.70
2022-12-18T00:36:27.685Z,169.80
2022-12-18T00:37:27.673Z,180.00
2022-12-18T00:38:27.620Z,292.80
2022-12-18T00:39:27.665Z,348.50
2022-12-18T00:40:27.578Z,365.60
2022-12-18T00:41:27.604Z,371.30
2022-12-18T00:42:27.696Z,321.90
2022-12-18T00:43:27.577Z,284.70
2022-12-18T00:44:27.567Z,302.10
2022-12-18T00:45:27.584Z,317.50
2022-12-18T00:46:27.565Z,301.30
2022-12-18T00:47:27.494Z,304.30
2022-12-18T00:48:27.653Z,275.00
2022-12-18T00:49:27.495Z,350.60
2022-12-18T00:50:27.488Z,243.20
2022-12-18T00:51:27.483Z,246.20
2022-12-18T00:52:27.467Z,333.20
2022-12-18T00:53:27.419Z,310.40
2022-12-18T00:54:27.486Z,151.00
2022-12-18T00:55:27.397Z,234.80
2022-12-18T00:56:27.437Z,348.50
2022-12-18T00:57:27.397Z,362.50
2022-12-18T00:58:27.389Z,349.00
2022-12-18T00:59:27.340Z,351.90
2022-12-18T01:00:27.428Z,323.60
2022-12-18T01:01:27.390Z,340.00
2022-12-18T01:02:27.472Z,261.20
2022-12-18T01:03:27.327Z,209.90
2022-12-18T01:04:27.311Z,260.50
2022-12-18T01:05:27.272Z,334.60
2022-12-18T01:06:27.435Z,357.80
2022-12-18T01:07:27.252Z,362.00
2022-12-18T01:08:27.291Z,362.80
2022-12-18T01:09:27.248Z,203.30
2022-12-18T01:10:27.243Z,123.40
2022-12-18T01:11:27.228Z,92.30
2022-12-18T01:12:27.252Z,147.70
2022-12-18T01:13:28.130Z,239.80
2022-12-18T01:14:27.218Z,223.30
2022-12-18T01:15:27.177Z,156.40
2022-12-18T01:16:27.195Z,144.50
2022-12-18T01:17:27.122Z,131.20
2022-12-18T01:18:27.198Z,136.20
2022-12-18T01:19:27.103Z,144.00
2022-12-18T01:20:27.147Z,147.70
2022-12-18T01:21:27.110Z,189.90
2022-12-18T01:22:27.093Z,179.90
2022-12-18T01:23:27.090Z,174.00
2022-12-18T01:24:27.184Z,244.20
2022-12-18T01:25:27.023Z,89.70
2022-12-18T01:26:27.072Z,264.00
2022-12-18T01:27:27.002Z,206.20
2022-12-18T01:28:27.041Z,141.70
2022-12-18T01:29:27.008Z,73.70
2022-12-18T01:30:27.015Z,75.00
2022-12-18T01:31:27.046Z,77.20
2022-12-18T01:32:26.999Z,156.90
2022-12-18T01:33:26.960Z,254.70
2022-12-18T01:34:26.944Z,265.10
2022-12-18T01:35:26.933Z,193.00
2022-12-18T01:36:26.946Z,136.90
2022-12-18T01:37:26.885Z,89.70
2022-12-18T01:38:26.921Z,82.30
2022-12-18T01:39:26.855Z,78.30
2022-12-18T01:40:26.900Z,91.00
2022-12-18T01:41:26.860Z,82.40
2022-12-18T01:42:26.887Z,83.00
2022-12-18T01:43:26.835Z,84.50
2022-12-18T01:44:26.825Z,146.90
2022-12-18T01:45:26.825Z,293.90
2022-12-18T01:46:26.822Z,354.10
2022-12-18T01:47:26.757Z,343.50
2022-12-18T01:48:26.840Z,353.80
2022-12-18T01:49:26.762Z,356.10
2022-12-18T01:50:26.746Z,371.40
2022-12-18T01:51:26.732Z,353.50
2022-12-18T01:52:26.726Z,305.70
2022-12-18T01:53:26.677Z,272.30
2022-12-18T01:54:26.761Z,226.10
2022-12-18T01:55:26.658Z,194.60
2022-12-18T01:56:26.705Z,148.70
2022-12-18T01:57:26.662Z,135.00
2022-12-18T01:58:26.647Z,94.90
2022-12-18T01:59:26.633Z,86.50
2022-12-18T02:00:26.649Z,122.40
2022-12-18T02:01:26.731Z,175.10
2022-12-18T02:02:26.794Z,229.00
2022-12-18T02:03:26.620Z,227.70
2022-12-18T02:04:26.579Z,235.00
2022-12-18T02:05:26.539Z,211.90
2022-12-18T02:06:26.604Z,227.40
2022-12-18T02:07:26.508Z,228.10
2022-12-18T02:08:26.553Z,194.70
2022-12-18T02:09:26.516Z,136.50
2022-12-18T02:10:26.498Z,95.40
2022-12-18T02:11:26.485Z,77.70
2022-12-18T02:12:26.589Z,70.50
2022-12-18T02:13:26.438Z,94.00
2022-12-18T02:14:26.478Z,144.90
2022-12-18T02:15:26.409Z,160.70
2022-12-18T02:16:26.475Z,88.50
2022-12-18T02:17:26.415Z,87.00
2022-12-18T02:18:26.444Z,95.10
2022-12-18T02:19:26.360Z,85.60
2022-12-18T02:20:26.406Z,126.90
2022-12-18T02:21:26.366Z,136.90
2022-12-18T02:22:26.360Z,172.40
2022-12-18T02:23:26.341Z,132.40
2022-12-18T02:24:26.445Z,120.40
2022-12-18T02:25:26.290Z,99.70
2022-12-18T02:26:26.328Z,84.30
2022-12-18T02:27:26.261Z,88.60
2022-12-18T02:28:26.313Z,82.20
2022-12-18T02:29:26.268Z,183.50
2022-12-18T02:30:26.394Z,216.90
2022-12-18T02:31:26.245Z,306.90
2022-12-18T02:32:26.231Z,288.40
2022-12-18T02:33:26.191Z,359.10
2022-12-18T02:34:26.237Z,339.70
2022-12-18T02:35:26.202Z,337.30
2022-12-18T02:36:26.222Z,290.50
2022-12-18T02:37:26.142Z,263.20
2022-12-18T02:38:26.189Z,84.00
2022-12-18T02:39:26.112Z,91.20
2022-12-18T02:40:26.159Z,132.20
2022-12-18T02:41:26.119Z,107.60
2022-12-18T02:42:26.222Z,76.50
2022-12-18T02:43:26.098Z,86.10
2022-12-18T02:44:26.083Z,122.20
2022-12-18T02:45:26.042Z,108.20
2022-12-18T02:46:26.087Z,92.60
2022-12-18T02:47:26.014Z,133.60
2022-12-18T02:48:26.088Z,169.00
2022-12-18T02:49:26.021Z,262.80
2022-12-18T02:50:26.012Z,281.20
2022-12-18T02:51:25.998Z,307.20
2022-12-18T02:52:25.985Z,261.60
2022-12-18T02:53:25.953Z,239.30
2022-12-18T02:54:26.099Z,298.20
2022-12-18T02:55:25.924Z,301.20
2022-12-18T02:56:25.960Z,276.10
2022-12-18T02:57:25.920Z,255.50
2022-12-18T02:58:25.911Z,267.80
2022-12-18T02:59:25.900Z,269.90
2022-12-18T03:00:25.913Z,262.10
2022-12-18T03:01:25.921Z,212.20
2022-12-18T03:02:26.017Z,217.90
2022-12-18T03:03:25.893Z,230.00
2022-12-18T03:04:25.862Z,252.80
2022-12-18T03:05:25.821Z,209.90
2022-12-18T03:06:25.917Z,191.40
2022-12-18T03:07:25.779Z,168.80
2022-12-18T03:08:25.818Z,210.60
2022-12-18T03:09:25.772Z,274.70
2022-12-18T03:10:25.766Z,54.50
2022-12-18T03:11:25.751Z,57.60
2022-12-18T03:12:25.775Z,63.70
2022-12-18T03:13:25.695Z,60.40
2022-12-18T03:14:25.743Z,58.30
2022-12-18T03:15:25.676Z,75.40
2022-12-18T03:16:25.757Z,146.10
2022-12-18T03:17:25.674Z,61.80
2022-12-18T03:18:25.778Z,60.70
2022-12-18T03:19:25.654Z,57.90
2022-12-18T03:20:25.636Z,64.00
2022-12-18T03:21:25.609Z,62.80
2022-12-18T03:22:25.644Z,68.70
2022-12-18T03:23:26.429Z,62.00
2022-12-18T03:24:25.628Z,68.20
2022-12-18T03:25:25.557Z,63.30
2022-12-18T03:26:25.602Z,66.60
2022-12-18T03:27:25.528Z,71.10
2022-12-18T03:28:25.578Z,64.40
2022-12-18T03:29:25.536Z,68.10
2022-12-18T03:30:25.548Z,71.70
2022-12-18T03:31:25.604Z,60.50
2022-12-18T03:32:25.498Z,60.30
2022-12-18T03:33:25.460Z,69.40
2022-12-18T03:34:25.495Z,63.10
2022-12-18T03:35:25.428Z,59.30
2022-12-18T03:36:25.586Z,64.60
2022-12-18T03:37:25.434Z,123.20
2022-12-18T03:38:25.419Z,124.40
2022-12-18T03:39:25.382Z,80.30
2022-12-18T03:40:25.425Z,73.70
2022-12-18T03:41:25.388Z,63.30
2022-12-18T03:42:25.403Z,66.60
2022-12-18T03:43:25.366Z,67.20
2022-12-18T03:44:25.349Z,62.30
2022-12-18T03:45:25.311Z,59.10
2022-12-18T03:46:25.389Z,64.30
2022-12-18T03:47:25.281Z,66.10
2022-12-18T03:48:25.365Z,72.80
2022-12-18T03:49:25.286Z,153.10
2022-12-18T03:50:25.272Z,130.30
2022-12-18T03:51:25.265Z,102.30
2022-12-18T03:52:25.251Z,94.10
2022-12-18T03:53:25.219Z,123.90
2022-12-18T03:54:25.368Z,86.00
2022-12-18T03:55:25.183Z,119.70
2022-12-18T03:56:25.228Z,254.60
2022-12-18T03:57:25.187Z,280.50
2022-12-18T03:58:25.180Z,311.90
2022-12-18T03:59:25.165Z,361.10
2022-12-18T04:00:25.192Z,356.10
2022-12-18T04:01:25.196Z,345.50
2022-12-18T04:02:25.326Z,355.80
2022-12-18T04:03:26.636Z,363.30
2022-12-18T04:04:25.129Z,342.10
2022-12-18T04:05:25.088Z,319.60
2022-12-18T04:06:25.183Z,326.20
2022-12-18T04:07:25.059Z,324.90
2022-12-18T04:08:25.052Z,226.70
2022-12-18T04:09:25.013Z,217.30
2022-12-18T04:10:25.058Z,218.00
2022-12-18T04:11:25.019Z,201.10
2022-12-18T04:12:25.046Z,250.70
2022-12-18T04:13:24.963Z,278.20
2022-12-18T04:14:25.009Z,195.60
2022-12-18T04:15:24.972Z,293.30
2022-12-18T04:16:24.980Z,187.10
2022-12-18T04:17:24.964Z,114.00
2022-12-18T04:18:24.964Z,69.80
2022-12-18T04:19:24.923Z,113.70
2022-12-18T04:20:24.904Z,68.60
2022-12-18T04:21:24.864Z,62.50
2022-12-18T04:22:24.909Z,55.10
2022-12-18T04:23:24.846Z,54.00
2022-12-18T04:24:24.911Z,55.60
2022-12-18T04:25:24.842Z,157.00
2022-12-18T04:26:24.835Z,92.10
2022-12-18T04:27:25.504Z,110.60
2022-12-18T04:28:24.831Z,191.20
2022-12-18T04:29:24.791Z,155.00
2022-12-18T04:30:24.895Z,62.90
2022-12-18T04:31:24.785Z,50.20
2022-12-18T04:32:24.755Z,53.30
2022-12-18T04:33:24.716Z,71.00
2022-12-18T04:34:24.761Z,133.60
2022-12-18T04:35:24.696Z,54.00
2022-12-18T04:36:24.772Z,122.50
2022-12-18T04:37:24.695Z,141.30
2022-12-18T04:38:24.688Z,100.90
2022-12-18T04:39:24.674Z,167.70
2022-12-18T04:40:24.656Z,220.40
2022-12-18T04:41:24.617Z,210.30
2022-12-18T04:42:24.696Z,240.00
2022-12-18T04:43:24.695Z,297.60
2022-12-18T04:44:24.609Z,273.50
2022-12-18T04:45:25.264Z,201.60
2022-12-18T04:46:24.664Z,223.70
2022-12-18T04:47:24.547Z,246.90
2022-12-18T04:48:24.695Z,230.00
2022-12-18T04:49:24.544Z,225.50
2022-12-18T04:50:24.539Z,231.20
2022-12-18T04:51:26.584Z,197.20
2022-12-18T04:52:24.511Z,182.70
2022-12-18T04:53:24.470Z,202.50
2022-12-18T04:54:24.555Z,255.60
2022-12-18T04:55:24.448Z,331.20
2022-12-18T04:56:25.167Z,105.40
2022-12-18T04:57:24.446Z,261.30
2022-12-18T04:58:24.439Z,181.70
2022-12-18T04:59:24.435Z,106.80
2022-12-18T05:00:24.446Z,98.20
2022-12-18T05:01:28.158Z,264.20
2022-12-18T05:02:25.516Z,126.00
2022-12-18T05:03:24.509Z,72.30
2022-12-18T05:04:24.339Z,61.30
2022-12-18T05:05:24.351Z,213.80
2022-12-18T05:06:24.376Z,209.50
2022-12-18T05:07:24.332Z,152.40
2022-12-18T05:08:24.315Z,83.70
2022-12-18T05:09:24.328Z,211.90
2022-12-18T05:10:24.260Z,273.90
2022-12-18T05:11:24.310Z,173.60
2022-12-18T05:12:24.261Z,97.00
2022-12-18T05:13:24.251Z,48.10
2022-12-18T05:14:24.239Z,47.10
2022-12-18T05:15:24.258Z,45.20
2022-12-18T05:16:24.238Z,45.80
2022-12-18T05:17:24.201Z,46.60
2022-12-18T05:18:24.226Z,42.70
2022-12-18T05:19:24.354Z,46.50
2022-12-18T05:20:24.324Z,46.90
2022-12-18T05:21:25.042Z,69.60
2022-12-18T05:22:24.339Z,158.70
2022-12-18T05:23:24.235Z,153.50
2022-12-18T05:24:24.262Z,50.40
2022-12-18T05:25:24.164Z,43.70
2022-12-18T05:26:24.105Z,81.50
2022-12-18T05:27:24.115Z,195.10
2022-12-18T05:28:24.085Z,94.50
2022-12-18T05:29:24.092Z,47.60
2022-12-18T05:30:24.134Z,45.70
2022-12-18T05:31:24.069Z,55.80
2022-12-18T05:32:24.041Z,118.10
2022-12-18T05:33:24.041Z,183.00
2022-12-18T05:34:24.009Z,100.40
2022-12-18T05:35:24.729Z,90.70
2022-12-18T05:36:23.996Z,51.90
2022-12-18T05:37:23.986Z,198.60
2022-12-18T05:38:23.953Z,321.10
2022-12-18T05:39:23.937Z,122.90
2022-12-18T05:40:23.942Z,155.10
2022-12-18T05:41:23.943Z,256.90
2022-12-18T05:42:23.997Z,278.80
2022-12-18T05:43:23.924Z,217.60
2022-12-18T05:44:23.857Z,109.90
2022-12-18T05:45:23.882Z,96.30
2022-12-18T05:46:23.940Z,327.60
2022-12-18T05:47:23.883Z,323.10
2022-12-18T05:48:23.916Z,327.60
2022-12-18T05:49:23.835Z,346.10
2022-12-18T05:50:23.805Z,330.30
2022-12-18T05:51:23.810Z,292.40
2022-12-18T05:52:23.795Z,340.30
2022-12-18T05:53:23.813Z,338.50
2022-12-18T05:54:23.854Z,310.10
2022-12-18T05:55:23.785Z,335.10
2022-12-18T05:56:23.709Z,319.60
2022-12-18T05:57:23.727Z,276.90
2022-12-18T05:58:23.715Z,346.50
2022-12-18T05:59:23.721Z,303.30
2022-12-18T06:00:23.735Z,279.10
2022-12-18T06:01:23.742Z,216.90
2022-12-18T06:02:23.738Z,250.20
2022-12-18T06:03:25.138Z,195.50
2022-12-18T06:04:23.630Z,267.50
2022-12-18T06:05:23.625Z,284.50
2022-12-18T06:06:23.725Z,317.00
2022-12-18T06:07:23.600Z,219.50
2022-12-18T06:08:23.588Z,268.40
2022-12-18T06:09:23.613Z,240.80
2022-12-18T06:10:23.530Z,269.90
2022-12-18T06:11:23.576Z,223.90
2022-12-18T06:12:23.540Z,239.10
2022-12-18T06:13:23.522Z,265.90
2022-12-18T06:14:23.526Z,189.40
2022-12-18T06:15:23.512Z,227.60
2022-12-18T06:16:23.527Z,350.20
2022-12-18T06:17:23.508Z,351.60
2022-12-18T06:18:23.462Z,100.00
2022-12-18T06:19:23.452Z,255.90
2022-12-18T06:20:23.437Z,190.50
2022-12-18T06:21:23.468Z,271.80
2022-12-18T06:22:23.382Z,286.60
2022-12-18T06:23:23.460Z,205.20
2022-12-18T06:24:23.493Z,97.80
2022-12-18T06:25:23.401Z,209.40
2022-12-18T06:26:27.755Z,89.40
2022-12-18T06:27:24.352Z,62.40
2022-12-18T06:28:23.349Z,67.50
2022-12-18T06:29:23.358Z,142.90
2022-12-18T06:30:23.632Z,109.60
2022-12-18T06:31:23.452Z,76.00
2022-12-18T06:32:23.272Z,184.00
2022-12-18T06:33:23.303Z,164.80
2022-12-18T06:34:23.260Z,110.40
2022-12-18T06:35:23.310Z,223.90
2022-12-18T06:36:23.290Z,123.40
2022-12-18T06:37:23.224Z,128.10
2022-12-18T06:38:23.210Z,188.10
2022-12-18T06:39:23.555Z,229.50
2022-12-18T06:40:23.210Z,103.70
2022-12-18T06:41:23.212Z,193.00
2022-12-18T06:42:23.185Z,104.50
2022-12-18T06:43:23.184Z,187.60
2022-12-18T06:44:23.115Z,215.50
2022-12-18T06:45:23.134Z,255.90
2022-12-18T06:46:23.130Z,84.30
2022-12-18T06:47:23.126Z,152.40
2022-12-18T06:48:23.131Z,160.40
2022-12-18T06:49:27.338Z,89.10
2022-12-18T06:50:24.055Z,243.10
2022-12-18T06:51:23.054Z,274.60
2022-12-18T06:52:23.045Z,105.20
2022-12-18T06:53:23.071Z,181.60
2022-12-18T06:54:23.295Z,232.40
2022-12-18T06:55:23.032Z,298.60
2022-12-18T06:56:22.988Z,320.70
2022-12-18T06:57:22.986Z,275.20
2022-12-18T06:58:22.972Z,253.20
2022-12-18T06:59:22.956Z,269.20
2022-12-18T07:00:23.052Z,204.00
2022-12-18T07:01:23.077Z,208.00
2022-12-18T07:02:23.020Z,130.40
2022-12-18T07:03:22.934Z,51.90
2022-12-18T07:04:22.868Z,137.00
2022-12-18T07:05:22.883Z,162.90
2022-12-18T07:06:22.984Z,156.40
2022-12-18T07:07:22.857Z,169.40
2022-12-18T07:08:22.844Z,245.90
2022-12-18T07:09:22.863Z,126.30
2022-12-18T07:10:22.787Z,248.70
2022-12-18T07:11:22.842Z,40.20
2022-12-18T07:12:22.788Z,37.80
2022-12-18T07:13:22.777Z,44.60
2022-12-18T07:14:22.766Z,40.10
2022-12-18T07:15:22.758Z,35.80
2022-12-18T07:16:25.643Z,33.50
2022-12-18T07:17:22.755Z,33.80
2022-12-18T07:18:22.727Z,36.80
2022-12-18T07:19:22.885Z,35.10
2022-12-18T07:20:23.539Z,31.20
2022-12-18T07:21:22.680Z,34.20
2022-12-18T07:22:22.668Z,33.40
2022-12-18T07:23:22.684Z,35.40
2022-12-18T07:24:22.651Z,39.60
2022-12-18T07:25:22.637Z,34.40
2022-12-18T07:26:22.618Z,33.80
2022-12-18T07:27:22.609Z,36.70
2022-12-18T07:28:22.595Z,39.40
2022-12-18T07:29:22.606Z,36.80
2022-12-18T07:30:22.561Z,36.80
2022-12-18T07:31:22.656Z,35.30
2022-12-18T07:32:22.527Z,37.20
2022-12-18T07:33:22.539Z,40.00
2022-12-18T07:34:22.525Z,34.40
2022-12-18T07:35:25.160Z,36.90
2022-12-18T07:36:22.616Z,36.90
2022-12-18T07:37:22.519Z,37.50
2022-12-18T07:38:22.451Z,40.80
2022-12-18T07:39:22.463Z,39.80
2022-12-18T07:40:22.449Z,34.70
2022-12-18T07:41:22.466Z,42.80
2022-12-18T07:42:22.433Z,40.00
2022-12-18T07:43:22.439Z,40.00
2022-12-18T07:44:22.376Z,37.70
2022-12-18T07:45:22.396Z,85.90
2022-12-18T07:46:22.446Z,40.50
2022-12-18T07:47:22.362Z,45.80
2022-12-18T07:48:22.371Z,47.50
2022-12-18T07:49:22.368Z,47.40
2022-12-18T07:50:22.293Z,40.90
2022-12-18T07:51:22.340Z,41.00
2022-12-18T07:52:25.994Z,41.40
2022-12-18T07:53:22.295Z,36.90
2022-12-18T07:54:22.389Z,114.80
2022-12-18T07:55:22.289Z,129.20
2022-12-18T07:56:30.935Z,265.80
2022-12-18T07:57:48.929Z,287.30
2022-12-18T07:58:23.229Z,192.20
2022-12-18T07:59:22.216Z,191.60
2022-12-18T08:00:22.241Z,237.00
2022-12-18T08:01:22.321Z,129.00
2022-12-18T08:02:22.258Z,203.10
2022-12-18T08:03:22.230Z,268.80
2022-12-18T08:04:22.125Z,126.50
2022-12-18T08:05:22.149Z,306.00
2022-12-18T08:06:23.400Z,372.00
2022-12-18T08:07:22.122Z,247.10
2022-12-18T08:08:22.110Z,204.30
2022-12-18T08:09:22.120Z,274.10
2022-12-18T08:10:22.055Z,84.20
2022-12-18T08:11:22.100Z,253.20
2022-12-18T08:12:22.136Z,44.70
2022-12-18T08:13:22.046Z,104.10
2022-12-18T08:14:22.031Z,45.90
2022-12-18T08:15:22.016Z,103.20
2022-12-18T08:16:22.128Z,245.50
2022-12-18T08:17:22.026Z,70.10
2022-12-18T08:18:22.066Z,104.90
2022-12-18T08:19:21.993Z,279.90
2022-12-18T08:20:21.934Z,85.20
2022-12-18T08:21:22.102Z,219.50
2022-12-18T08:22:21.933Z,272.40
2022-12-18T08:23:21.917Z,51.00
2022-12-18T08:24:22.014Z,77.40
2022-12-18T08:25:21.924Z,40.20
2022-12-18T08:26:22.567Z,52.20
2022-12-18T08:27:29.442Z,155.40
2022-12-18T08:28:22.862Z,58.00
2022-12-18T08:29:21.874Z,66.10
2022-12-18T08:30:21.918Z,210.00
2022-12-18T08:31:21.896Z,177.10
2022-12-18T08:32:21.803Z,95.00
2022-12-18T08:33:22.756Z,223.10
2022-12-18T08:34:21.783Z,61.80
2022-12-18T08:35:21.771Z,123.20
2022-12-18T08:36:21.874Z,172.00
2022-12-18T08:37:21.785Z,105.60
2022-12-18T08:38:21.709Z,253.90
2022-12-18T08:39:21.745Z,222.60
2022-12-18T08:40:21.680Z,174.80
2022-12-18T08:41:21.700Z,250.70
2022-12-18T08:42:21.804Z,260.40
2022-12-18T08:43:21.703Z,208.90
2022-12-18T08:44:21.636Z,207.60
2022-12-18T08:45:21.650Z,197.10
2022-12-18T08:46:21.698Z,208.70
2022-12-18T08:47:21.628Z,225.60
2022-12-18T08:48:22.386Z,97.60
2022-12-18T08:49:21.628Z,248.50
2022-12-18T08:50:21.560Z,258.10
2022-12-18T08:51:21.600Z,202.10
2022-12-18T08:52:21.538Z,284.20
2022-12-18T08:53:21.550Z,244.60
2022-12-18T08:54:21.567Z,163.40
2022-12-18T08:55:21.520Z,193.60
2022-12-18T08:56:21.508Z,182.50
2022-12-18T08:57:21.527Z,116.90
2022-12-18T08:58:21.460Z,136.30
2022-12-18T08:59:21.472Z,117.90
2022-12-18T09:00:21.577Z,110.30
2022-12-18T09:01:21.525Z,84.80
2022-12-18T09:02:21.663Z,81.60
2022-12-18T09:03:21.474Z,74.70
2022-12-18T09:04:21.382Z,54.50
2022-12-18T09:05:21.401Z,50.20
2022-12-18T09:06:21.430Z,59.60
2022-12-18T09:07:21.372Z,38.10
2022-12-18T09:08:21.359Z,38.90
2022-12-18T09:09:21.377Z,45.30
2022-12-18T09:10:21.302Z,36.60
2022-12-18T09:11:21.349Z,45.00
2022-12-18T09:12:21.318Z,40.50
2022-12-18T09:13:21.304Z,40.90
2022-12-18T09:14:21.280Z,41.00
2022-12-18T09:15:21.269Z,48.30
2022-12-18T09:16:21.299Z,49.10
2022-12-18T09:17:21.383Z,49.00
2022-12-18T09:18:21.290Z,43.00
2022-12-18T09:19:21.223Z,39.10
2022-12-18T09:20:21.261Z,41.70
2022-12-18T09:21:21.191Z,45.10
2022-12-18T09:22:22.152Z,40.50
2022-12-18T09:23:21.178Z,42.00
2022-12-18T09:24:21.184Z,46.80
2022-12-18T09:25:21.114Z,40.00
2022-12-18T09:26:21.161Z,39.20
2022-12-18T09:27:21.085Z,48.80
2022-12-18T09:28:21.132Z,46.50
2022-12-18T09:29:21.112Z,42.90
2022-12-18T09:30:21.108Z,48.30
2022-12-18T09:31:21.062Z,54.80
2022-12-18T09:32:22.657Z,43.00
2022-12-18T09:33:21.064Z,39.60
2022-12-18T09:34:21.026Z,39.20
2022-12-18T09:35:21.012Z,42.90
2022-12-18T09:36:21.051Z,39.60
2022-12-18T09:37:20.966Z,40.00
2022-12-18T09:38:21.013Z,39.30
2022-12-18T09:39:22.901Z,42.00
2022-12-18T09:40:20.984Z,38.60
2022-12-18T09:41:20.944Z,39.60
2022-12-18T09:42:21.046Z,39.70
2022-12-18T09:43:20.935Z,40.30
2022-12-18T09:44:20.936Z,48.60
2022-12-18T09:45:20.858Z,45.30
2022-12-18T09:46:20.936Z,43.90
2022-12-18T09:47:20.866Z,44.30
2022-12-18T09:48:20.887Z,44.60
2022-12-18T09:49:20.809Z,47.50
2022-12-18T09:50:20.854Z,43.40
2022-12-18T09:51:20.787Z,43.80
2022-12-18T09:52:20.826Z,46.40
2022-12-18T09:53:20.787Z,41.70
2022-12-18T09:54:20.879Z,43.30
2022-12-18T09:55:20.764Z,39.70
2022-12-18T09:56:20.749Z,56.60
2022-12-18T09:57:20.709Z,57.20
2022-12-18T09:58:20.754Z,49.20
2022-12-18T09:59:20.679Z,43.70
2022-12-18T10:00:20.763Z,41.30
2022-12-18T10:01:20.761Z,41.60
2022-12-18T10:02:20.752Z,41.40
2022-12-18T10:03:21.340Z,43.00
2022-12-18T10:04:20.764Z,40.30
2022-12-18T10:05:20.627Z,48.10
2022-12-18T10:06:20.650Z,41.80
2022-12-18T10:07:20.606Z,40.60
2022-12-18T10:08:20.602Z,49.20
2022-12-18T10:09:20.581Z,46.30
2022-12-18T10:10:20.665Z,43.90
2022-12-18T10:11:20.552Z,42.90
2022-12-18T10:12:20.688Z,41.80
2022-12-18T10:13:20.529Z,37.30
2022-12-18T10:14:24.613Z,51.70
2022-12-18T10:15:20.509Z,53.50
2022-12-18T10:16:20.581Z,45.30
2022-12-18T10:17:20.454Z,43.50
2022-12-18T10:18:22.183Z,42.70
2022-12-18T10:19:20.424Z,41.10
2022-12-18T10:20:20.561Z,45.50
2022-12-18T10:21:20.430Z,46.60
2022-12-18T10:22:20.414Z,48.00
2022-12-18T10:23:20.400Z,49.20
2022-12-18T10:24:20.444Z,58.80
2022-12-18T10:25:20.353Z,50.70
2022-12-18T10:26:20.391Z,41.20
2022-12-18T10:27:20.325Z,43.90
2022-12-18T10:28:20.370Z,38.70
2022-12-18T10:29:20.321Z,42.80
2022-12-18T10:30:20.470Z,43.90
2022-12-18T10:31:20.326Z,43.70
2022-12-18T10:32:20.304Z,39.70
2022-12-18T10:33:20.254Z,43.80
2022-12-18T10:34:20.281Z,41.30
2022-12-18T10:35:20.250Z,42.30
2022-12-18T10:36:20.284Z,42.80
2022-12-18T10:37:20.216Z,35.90
2022-12-18T10:38:20.234Z,43.60
2022-12-18T10:39:20.165Z,39.70
2022-12-18T10:40:22.767Z,40.30
2022-12-18T10:41:21.677Z,34.20
2022-12-18T10:42:20.186Z,49.70
2022-12-18T10:43:20.146Z,49.00
2022-12-18T10:44:20.130Z,44.20
2022-12-18T10:45:20.086Z,46.80
2022-12-18T10:46:20.188Z,35.10
2022-12-18T10:47:20.067Z,40.90
2022-12-18T10:48:20.143Z,38.90
2022-12-18T10:49:20.063Z,31.40
2022-12-18T10:50:20.068Z,50.30
2022-12-18T10:51:20.008Z,41.00
2022-12-18T10:52:20.052Z,44.30
2022-12-18T10:53:20.013Z,34.20
2022-12-18T10:54:20.027Z,35.00
2022-12-18T10:55:19.996Z,32.30
2022-12-18T10:56:19.967Z,33.90
2022-12-18T10:57:19.976Z,31.30
2022-12-18T10:58:24.971Z,35.90
2022-12-18T10:59:20.948Z,27.30
2022-12-18T11:00:19.945Z,44.80
2022-12-18T11:01:19.985Z,35.10
2022-12-18T11:02:19.981Z,33.20
2022-12-18T11:03:19.928Z,32.60
2022-12-18T11:04:19.871Z,34.50
2022-12-18T11:05:19.889Z,32.20
2022-12-18T11:06:19.868Z,29.30
2022-12-18T11:07:19.827Z,33.80
2022-12-18T11:08:19.820Z,34.20
2022-12-18T11:09:19.772Z,28.30
2022-12-18T11:10:19.819Z,34.00
2022-12-18T11:11:28.524Z,24.90
2022-12-18T11:12:19.809Z,48.30
2022-12-18T11:13:19.833Z,34.90
2022-12-18T11:14:19.748Z,39.50
2022-12-18T11:15:19.718Z,31.40
2022-12-18T11:16:19.892Z,33.90
2022-12-18T11:18:19.540Z,47.00
2022-12-18T11:19:19.561Z,46.70
2022-12-18T11:20:19.567Z,46.00
2022-12-18T11:21:19.531Z,39.60
2022-12-18T11:22:19.518Z,38.50
2022-12-18T11:23:19.638Z,34.20
2022-12-18T11:24:19.461Z,34.80
2022-12-18T11:25:35.891Z,26.90
2022-12-18T11:26:20.443Z,39.40
2022-12-18T11:27:23.527Z,36.00
2022-12-18T11:28:51.632Z,31.50
2022-12-18T11:29:19.634Z,31.50
2022-12-18T11:30:22.099Z,28.20
2022-12-18T11:31:20.411Z,31.50
2022-12-18T11:32:20.005Z,30.30
2022-12-18T11:33:19.537Z,28.50
2022-12-18T11:34:29.034Z,26.60
2022-12-18T11:35:20.391Z,40.90
2022-12-18T11:36:20.245Z,38.40
2022-12-18T11:37:20.175Z,33.50
2022-12-18T11:38:19.365Z,28.10
2022-12-18T11:39:19.664Z,30.60
2022-12-18T11:40:23.527Z,29.40
2022-12-18T11:41:19.592Z,21.50
2022-12-18T11:42:19.323Z,38.80
2022-12-18T11:43:23.738Z,30.00
2022-12-18T11:44:19.596Z,29.10
2022-12-18T11:45:20.076Z,26.80
2022-12-18T11:46:19.936Z,24.20
2022-12-18T11:47:19.226Z,25.70
2022-12-18T11:48:19.219Z,23.80
2022-12-18T11:49:20.006Z,21.10
2022-12-18T11:50:19.555Z,31.30
2022-12-18T11:51:19.201Z,26.30
2022-12-18T11:52:19.197Z,25.70
2022-12-18T11:53:19.092Z,24.50
2022-12-18T11:54:19.110Z,26.00
2022-12-18T11:55:19.097Z,27.70
2022-12-18T11:56:19.081Z,21.00
2022-12-18T11:57:19.070Z,30.10
2022-12-18T11:58:19.110Z,39.50
2022-12-18T11:59:19.023Z,27.90
2022-12-18T12:00:19.057Z,25.30
2022-12-18T12:01:19.018Z,25.40
2022-12-18T12:02:19.103Z,23.20
2022-12-18T12:03:19.042Z,20.00
2022-12-18T12:04:19.053Z,35.00
2022-12-18T12:05:18.960Z,31.30
2022-12-18T12:06:18.952Z,27.40
2022-12-18T12:07:18.938Z,23.40
2022-12-18T12:08:18.935Z,26.20
2022-12-18T12:09:18.910Z,20.70
2022-12-18T12:10:18.939Z,20.60
2022-12-18T12:11:18.886Z,31.50
2022-12-18T12:12:18.900Z,27.90
2022-12-18T12:13:18.835Z,25.10
2022-12-18T12:14:18.844Z,23.60
2022-12-18T12:15:18.842Z,19.30
2022-12-18T12:16:18.923Z,18.70
2022-12-18T12:17:18.810Z,23.60
2022-12-18T12:18:18.823Z,19.40
2022-12-18T12:19:18.756Z,17.10
2022-12-18T12:20:18.775Z,27.20
2022-12-18T12:21:18.750Z,18.70
2022-12-18T12:22:18.885Z,17.70
2022-12-18T12:23:20.015Z,16.60
2022-12-18T12:24:18.742Z,17.30
2022-12-18T12:25:18.675Z,18.60
2022-12-18T12:26:18.696Z,18.50
2022-12-18T12:27:18.684Z,16.10
2022-12-18T12:28:18.707Z,24.10
2022-12-18T12:29:21.313Z,20.20
2022-12-18T12:30:18.662Z,16.90
2022-12-18T12:31:18.646Z,18.60
2022-12-18T12:32:18.644Z,18.50
2022-12-18T12:33:18.577Z,18.20
2022-12-18T12:34:18.617Z,17.40
2022-12-18T12:35:18.573Z,21.70
2022-12-18T12:36:18.594Z,17.50
2022-12-18T12:37:18.519Z,17.10
2022-12-18T12:38:18.528Z,17.30
2022-12-18T12:39:18.523Z,17.70
2022-12-18T12:40:49.070Z,16.20
2022-12-18T12:41:19.494Z,21.80